Time;durP1;ratioP1;P1;durP2;ratioP2;P2;SDS_P1;SDS_P2;PMS_P1;PMS_P2;Temp;Humidity;BMP_temperature;BMP_pressure;BME280_temperature;BME280_humidity;BME280_pressure;Samples;Min_cycle;Max_cycle;Signal;HPM_P1;HPM_P2
2021/11/17 02:25:51;;;;;;;6.50;5.28;;;7.60;99.90;;;;;;5045931;28;20188;-52
2021/11/17 02:28:36;;;;;;;5.70;4.70;;;7.60;99.90;;;;;;5072125;28;20268;-52
2021/11/17 02:31:37;;;;;;;5.90;4.80;;;7.80;99.90;;;;;;5072976;28;20291;-52
2021/11/17 02:34:19;;;;;;;5.85;4.65;;;7.60;99.90;;;;;;5046054;28;20184;-52
2021/11/17 02:37:16;;;;;;;4.70;4.25;;;7.50;99.90;;;;;;5057024;28;20213;-51
2021/11/17 02:39:48;;;;;;;6.78;5.00;;;7.70;99.90;;;;;;5047357;28;20690;-52
2021/11/17 02:42:41;;;;;;;6.90;5.28;;;7.90;99.90;;;;;;5052515;28;20186;-52
2021/11/17 02:45:32;;;;;;;5.13;4.55;;;7.90;99.90;;;;;;5053658;28;20204;-52
2021/11/17 02:48:22;;;;;;;7.97;4.95;;;7.80;99.90;;;;;;5043340;28;20190;-52
2021/11/17 02:51:13;;;;;;;5.47;4.93;;;7.60;99.90;;;;;;5056328;28;20209;-52
2021/11/17 02:53:39;;;;;;;5.53;4.75;;;7.80;99.90;;;;;;5033224;28;20182;-52
2021/11/17 02:56:19;;;;;;;7.17;4.80;;;7.80;99.90;;;;;;5054261;28;20205;-52
2021/11/17 02:59:13;;;;;;;6.47;5.40;;;7.60;99.90;;;;;;5071425;28;20592;-52
2021/11/17 03:01:47;;;;;;;6.35;5.13;;;7.60;99.90;;;;;;5071775;28;20212;-52
2021/11/17 03:04:48;;;;;;;6.20;5.05;;;7.70;99.90;;;;;;5056833;28;20186;-52
2021/11/17 03:07:31;;;;;;;6.53;5.50;;;8.00;99.90;;;;;;5053987;28;20193;-52
2021/11/17 03:10:11;;;;;;;8.30;6.15;;;7.60;99.90;;;;;;5042281;28;20222;-52
2021/11/17 03:12:52;;;;;;;7.63;5.15;;;7.90;99.90;;;;;;5052067;28;20547;-52
2021/11/17 03:15:55;;;;;;;7.25;5.93;;;7.70;99.90;;;;;;5068234;28;20605;-53
2021/11/17 03:19:11;;;;;;;6.80;5.28;;;7.70;99.90;;;;;;5040907;28;20651;-53
2021/11/17 03:21:55;;;;;;;8.32;5.43;;;7.50;99.90;;;;;;5010881;28;20208;-52
2021/11/17 03:24:32;;;;;;;7.22;5.13;;;7.50;99.90;;;;;;5046193;28;20728;-53
2021/11/17 03:26:58;;;;;;;7.10;5.97;;;7.50;99.90;;;;;;5051198;28;20193;-53
2021/11/17 03:29:41;;;;;;;7.07;5.50;;;7.80;99.90;;;;;;5051297;28;20444;-52
2021/11/17 03:32:29;;;;;;;8.02;4.80;;;7.40;99.90;;;;;;5050118;28;20181;-52
2021/11/17 03:35:02;;;;;;;8.25;5.88;;;7.60;99.90;;;;;;5034275;28;20181;-52
2021/11/17 03:37:34;;;;;;;8.10;6.25;;;7.60;99.90;;;;;;5050926;28;20205;-52
2021/11/17 03:40:05;;;;;;;6.20;5.00;;;7.70;99.90;;;;;;5043682;28;20214;-52
2021/11/17 03:42:45;;;;;;;9.73;6.25;;;7.20;99.90;;;;;;5057996;28;20275;-52
2021/11/17 03:45:29;;;;;;;6.97;5.68;;;7.30;99.90;;;;;;5045530;28;20273;-52
2021/11/17 03:48:32;;;;;;;5.07;4.43;;;7.40;99.90;;;;;;5037349;28;20626;-52
2021/11/17 03:51:33;;;;;;;8.77;6.18;;;7.20;99.90;;;;;;5050976;28;20670;-52
2021/11/17 03:54:05;;;;;;;7.07;5.65;;;7.20;99.90;;;;;;5036161;28;20992;-52
2021/11/17 03:56:52;;;;;;;6.80;5.40;;;7.10;99.90;;;;;;5053904;28;20602;-52
2021/11/17 03:59:27;;;;;;;9.35;6.30;;;7.30;99.90;;;;;;5049237;28;20276;-52
2021/11/17 04:02:23;;;;;;;7.00;5.10;;;7.00;99.90;;;;;;5045962;28;20570;-52
2021/11/17 04:04:55;;;;;;;7.20;5.57;;;7.10;99.90;;;;;;5052494;28;20673;-52
2021/11/17 04:07:26;;;;;;;6.38;5.38;;;7.20;99.90;;;;;;5070257;28;20546;-52
2021/11/17 04:10:05;;;;;;;5.80;5.13;;;7.30;99.90;;;;;;5030308;28;20245;-51
2021/11/17 04:12:44;;;;;;;5.85;4.65;;;7.30;99.90;;;;;;5056670;28;20191;-52
2021/11/17 04:15:28;;;;;;;12.23;8.05;;;7.30;99.90;;;;;;5056143;28;20924;-52
2021/11/17 04:17:57;;;;;;;8.77;5.90;;;7.20;99.90;;;;;;5045855;28;20196;-52
2021/11/17 04:20:29;;;;;;;8.02;6.40;;;7.30;99.90;;;;;;5049854;28;20674;-52
2021/11/17 04:23:16;;;;;;;7.20;5.57;;;7.30;99.90;;;;;;5041887;28;20192;-52
2021/11/17 04:25:57;;;;;;;10.32;6.18;;;7.30;99.90;;;;;;5049311;28;20189;-52
2021/11/17 04:28:34;;;;;;;8.25;6.00;;;7.00;99.90;;;;;;5049745;28;20197;-52
2021/11/17 04:31:13;;;;;;;8.38;6.30;;;7.10;99.90;;;;;;5050900;28;20209;-52
2021/11/17 04:34:04;;;;;;;8.52;5.93;;;7.10;99.90;;;;;;5048761;28;20552;-51
2021/11/17 04:37:12;;;;;;;6.43;5.38;;;7.20;99.90;;;;;;5070126;28;20220;-51
2021/11/17 04:39:53;;;;;;;7.53;5.78;;;7.30;99.90;;;;;;5043208;28;20297;-51
2021/11/17 04:42:47;;;;;;;9.63;5.80;;;7.40;99.90;;;;;;5065639;28;20183;-51
2021/11/17 04:45:27;;;;;;;7.80;5.45;;;7.30;99.90;;;;;;5037061;28;20329;-51
2021/11/17 04:48:14;;;;;;;7.57;5.47;;;7.70;99.90;;;;;;5033544;28;20188;-52
2021/11/17 04:51:09;;;;;;;7.95;5.88;;;7.60;99.90;;;;;;5051657;28;20253;-53
2021/11/17 04:53:40;;;;;;;7.68;6.35;;;7.80;99.90;;;;;;5059610;28;20185;-51
2021/11/17 04:56:27;;;;;;;10.05;6.43;;;7.50;99.90;;;;;;5059963;28;20205;-52
2021/11/17 04:59:10;;;;;;;6.97;5.90;;;7.40;99.90;;;;;;5069631;28;20729;-52
2021/11/17 05:02:13;;;;;;;8.15;5.80;;;7.30;99.90;;;;;;5056024;28;20212;-52
2021/11/17 05:04:53;;;;;;;9.02;5.90;;;7.50;99.90;;;;;;4989646;28;20186;-51
2021/11/17 05:07:34;;;;;;;11.05;7.40;;;7.20;99.90;;;;;;5027701;28;20280;-51
2021/11/17 05:10:06;;;;;;;6.78;5.57;;;7.10;99.90;;;;;;5045328;28;20601;-52
2021/11/17 05:12:51;;;;;;;7.18;5.75;;;7.40;99.90;;;;;;5069256;28;20180;-52
2021/11/17 05:15:29;;;;;;;7.40;5.35;;;7.20;99.90;;;;;;5052080;28;20239;-52
2021/11/17 05:18:06;;;;;;;7.15;5.85;;;7.20;99.90;;;;;;5029320;28;20200;-52
2021/11/17 05:20:50;;;;;;;6.68;5.18;;;7.00;99.90;;;;;;5042297;28;20196;-52
2021/11/17 05:23:47;;;;;;;8.98;5.50;;;7.40;99.90;;;;;;5057112;28;20189;-52
2021/11/17 05:26:45;;;;;;;7.22;5.35;;;7.50;99.90;;;;;;5043601;28;20572;-52
2021/11/17 05:29:13;;;;;;;5.38;4.40;;;7.30;99.90;;;;;;5026919;28;20205;-52
2021/11/17 05:31:58;;;;;;;7.25;5.43;;;7.20;99.90;;;;;;5035321;28;20568;-52
2021/11/17 05:34:39;;;;;;;5.07;4.57;;;7.30;99.90;;;;;;5047516;28;20194;-52
2021/11/17 05:37:16;;;;;;;4.95;4.45;;;7.70;99.90;;;;;;5051409;28;20205;-52
2021/11/17 05:40:05;;;;;;;6.60;4.97;;;7.20;99.90;;;;;;5053344;28;20209;-52
2021/11/17 05:43:12;;;;;;;6.55;5.20;;;7.30;99.90;;;;;;5043064;28;20654;-51
2021/11/17 05:45:37;;;;;;;6.47;5.38;;;7.40;99.90;;;;;;5061217;28;20195;-52
2021/11/17 05:48:23;;;;;;;7.00;5.60;;;7.30;99.90;;;;;;5054461;28;20193;-52
2021/11/17 05:51:10;;;;;;;8.68;5.43;;;7.30;99.90;;;;;;5070812;28;20221;-52
2021/11/17 05:53:44;;;;;;;6.97;5.03;;;7.20;99.90;;;;;;5046697;28;20276;-51
2021/11/17 05:56:44;;;;;;;6.40;4.82;;;7.30;99.90;;;;;;5055657;28;20296;-51
2021/11/17 05:59:53;;;;;;;6.72;5.40;;;7.30;99.90;;;;;;5049884;28;20196;-52
2021/11/17 06:02:24;;;;;;;6.60;5.32;;;7.20;99.90;;;;;;5063043;28;20195;-52
2021/11/17 06:04:50;;;;;;;7.70;4.75;;;7.30;99.90;;;;;;5070348;28;20239;-52
2021/11/17 06:07:15;;;;;;;8.47;5.97;;;7.50;99.90;;;;;;5056278;28;20639;-52
2021/11/17 06:09:41;;;;;;;6.13;5.33;;;7.30;99.90;;;;;;5060979;28;20561;-51
2021/11/17 06:12:17;;;;;;;5.83;4.50;;;7.60;99.90;;;;;;5063928;28;20184;-52
2021/11/17 06:14:50;;;;;;;6.70;5.03;;;7.70;99.90;;;;;;5055977;28;20197;-52
2021/11/17 06:17:19;;;;;;;5.88;4.32;;;7.60;99.90;;;;;;5058950;28;20532;-52
2021/11/17 06:19:49;;;;;;;8.15;4.88;;;7.40;99.90;;;;;;5054598;28;20254;-52
2021/11/17 06:22:18;;;;;;;8.00;6.15;;;7.50;99.90;;;;;;5052326;28;20536;-52
2021/11/17 06:24:44;;;;;;;6.65;4.57;;;7.20;99.90;;;;;;5046652;28;20185;-52
2021/11/17 06:27:17;;;;;;;5.55;4.68;;;6.90;99.90;;;;;;5067068;28;20188;-52
2021/11/17 06:29:47;;;;;;;7.00;5.20;;;7.30;99.90;;;;;;5062819;28;20198;-51
2021/11/17 06:32:13;;;;;;;6.50;4.55;;;7.20;99.90;;;;;;5048158;28;20215;-51
2021/11/17 06:34:50;;;;;;;5.75;4.75;;;7.20;99.90;;;;;;5053864;28;20211;-51
2021/11/17 06:37:19;;;;;;;5.60;4.22;;;7.40;99.90;;;;;;5068363;28;20326;-51
2021/11/17 06:39:47;;;;;;;9.23;5.28;;;7.60;99.90;;;;;;5046167;28;20201;-50
2021/11/17 06:42:19;;;;;;;8.82;4.70;;;8.00;99.90;;;;;;5060224;28;20626;-52
2021/11/17 06:44:47;;;;;;;7.95;4.68;;;7.90;99.90;;;;;;5051884;28;20165;-51
2021/11/17 06:47:13;;;;;;;5.43;3.97;;;8.30;99.90;;;;;;5057404;28;20185;-49
2021/11/17 06:49:39;;;;;;;7.33;4.13;;;7.80;99.90;;;;;;5036448;28;20189;-51
2021/11/17 06:52:06;;;;;;;5.67;4.70;;;7.50;99.90;;;;;;5060149;28;20479;-51
2021/11/17 06:54:32;;;;;;;5.65;4.22;;;7.70;99.90;;;;;;5050091;28;20571;-51
2021/11/17 06:56:58;;;;;;;4.55;3.83;;;7.80;99.90;;;;;;5058049;28;20223;-51
2021/11/17 06:59:24;;;;;;;5.53;4.17;;;7.80;99.90;;;;;;5058410;28;20175;-51
2021/11/17 07:01:49;;;;;;;5.80;4.70;;;7.40;99.90;;;;;;5055806;28;20415;-51
2021/11/17 07:04:15;;;;;;;5.20;4.70;;;7.60;99.90;;;;;;5056919;28;20485;-51
2021/11/17 07:06:41;;;;;;;9.40;5.30;;;7.70;99.90;;;;;;5059910;28;20178;-52
2021/11/17 07:09:09;;;;;;;5.53;4.10;;;7.70;99.90;;;;;;5042594;28;20252;-52
2021/11/17 07:11:39;;;;;;;4.93;3.85;;;7.40;99.90;;;;;;5051049;28;20203;-51
2021/11/17 07:14:06;;;;;;;4.30;3.60;;;7.70;99.90;;;;;;5059036;28;20197;-51
2021/11/17 07:16:33;;;;;;;6.32;4.25;;;7.60;99.90;;;;;;5060131;28;20212;-52
2021/11/17 07:18:59;;;;;;;5.85;4.65;;;7.80;99.90;;;;;;5058492;28;20228;-52
2021/11/17 07:21:24;;;;;;;7.85;4.03;;;7.60;99.90;;;;;;5066791;28;20661;-52
2021/11/17 07:23:51;;;;;;;5.73;4.70;;;7.40;99.90;;;;;;5047613;28;20213;-52
2021/11/17 07:26:17;;;;;;;7.00;4.28;;;6.80;99.90;;;;;;5053562;28;20208;-53
2021/11/17 07:28:42;;;;;;;7.50;3.70;;;7.20;99.90;;;;;;5061313;28;20642;-52
2021/11/17 07:31:08;;;;;;;6.73;4.40;;;7.50;99.90;;;;;;5050725;28;20828;-51
2021/11/17 07:33:33;;;;;;;5.77;4.27;;;7.60;99.90;;;;;;5051007;28;20216;-51
2021/11/17 07:35:59;;;;;;;6.37;3.87;;;7.20;99.90;;;;;;5032999;28;20213;-52
2021/11/17 07:38:25;;;;;;;6.17;4.43;;;7.30;99.90;;;;;;5051189;28;20190;-51
2021/11/17 07:40:52;;;;;;;5.55;4.40;;;7.00;99.90;;;;;;5063069;28;20251;-50
2021/11/17 07:43:21;;;;;;;5.80;4.30;;;7.50;99.90;;;;;;5037094;28;20584;-51
2021/11/17 07:45:47;;;;;;;6.32;4.50;;;7.60;99.90;;;;;;5055659;28;20207;-52
2021/11/17 07:48:14;;;;;;;6.40;4.13;;;7.30;99.90;;;;;;5052776;28;20193;-54
2021/11/17 07:50:41;;;;;;;5.55;4.22;;;7.40;99.90;;;;;;5051894;28;20205;-52
2021/11/17 07:53:07;;;;;;;4.60;3.80;;;7.30;99.90;;;;;;5055923;28;20208;-53
2021/11/17 07:55:34;;;;;;;6.35;3.80;;;7.80;99.90;;;;;;5054722;28;20226;-53
2021/11/17 07:58:01;;;;;;;5.68;4.40;;;7.70;99.90;;;;;;5051197;28;20184;-53
2021/11/17 08:00:29;;;;;;;5.25;4.05;;;7.60;99.90;;;;;;5050435;28;20728;-52
2021/11/17 08:02:55;;;;;;;7.45;4.65;;;7.60;99.90;;;;;;5053143;28;20332;-50
2021/11/17 08:05:24;;;;;;;5.40;4.53;;;7.30;99.90;;;;;;5054335;28;20802;-52
2021/11/17 08:07:50;;;;;;;4.75;3.97;;;7.30;99.90;;;;;;5059630;28;20418;-52
2021/11/17 08:10:29;;;;;;;5.18;4.30;;;7.40;99.90;;;;;;5041259;28;20240;-52
2021/11/17 08:12:55;;;;;;;6.20;3.60;;;7.40;99.90;;;;;;5054692;28;20472;-53
2021/11/17 08:15:21;;;;;;;5.87;4.60;;;7.40;99.90;;;;;;5065095;28;20195;-51
2021/11/17 08:17:46;;;;;;;5.68;4.10;;;7.50;99.90;;;;;;5055956;28;20815;-51
2021/11/17 08:20:16;;;;;;;4.93;3.93;;;7.60;99.90;;;;;;5062550;28;20205;-50
2021/11/17 08:22:45;;;;;;;6.75;3.88;;;7.70;99.90;;;;;;5036247;28;20606;-51
2021/11/17 08:25:12;;;;;;;5.30;4.38;;;7.50;99.90;;;;;;5047702;28;20605;-51
2021/11/17 08:27:38;;;;;;;4.90;3.60;;;7.80;99.90;;;;;;5047084;28;20530;-51
2021/11/17 08:30:09;;;;;;;5.38;3.90;;;7.80;99.90;;;;;;5030871;28;20625;-51
2021/11/17 08:32:34;;;;;;;7.38;4.30;;;8.00;99.90;;;;;;5055361;28;20193;-51
2021/11/17 08:35:00;;;;;;;4.50;3.50;;;7.70;99.90;;;;;;5051804;28;20268;-53
2021/11/17 08:37:25;;;;;;;5.57;4.83;;;8.00;99.90;;;;;;5040591;28;20213;-52
2021/11/17 08:39:53;;;;;;;5.33;3.60;;;8.00;99.90;;;;;;5041219;28;20201;-53
2021/11/17 08:42:19;;;;;;;5.15;3.92;;;7.80;99.90;;;;;;5060441;28;20207;-53
2021/11/17 08:44:45;;;;;;;6.25;3.58;;;7.90;99.90;;;;;;5050550;28;20211;-52
2021/11/17 08:47:13;;;;;;;8.80;6.40;;;7.70;99.90;;;;;;5050636;28;20189;-52
2021/11/17 08:49:39;;;;;;;4.50;3.85;;;7.90;99.90;;;;;;5055041;28;20186;-51
2021/11/17 08:52:08;;;;;;;6.03;5.10;;;7.80;99.90;;;;;;5050475;28;20761;-52
2021/11/17 08:54:34;;;;;;;4.90;3.40;;;8.10;99.90;;;;;;5061087;28;20636;-55
2021/11/17 08:57:01;;;;;;;4.30;3.80;;;8.20;99.90;;;;;;5055389;28;20572;-54
2021/11/17 08:59:31;;;;;;;7.93;3.70;;;8.30;99.90;;;;;;5046351;28;20209;-55
2021/11/17 09:02:01;;;;;;;4.22;2.80;;;8.20;99.90;;;;;;5061847;28;20186;-53
2021/11/17 09:04:27;;;;;;;3.20;2.70;;;8.30;99.90;;;;;;5062938;28;20181;-51
2021/11/17 09:06:52;;;;;;;5.00;1.97;;;8.40;99.90;;;;;;5066433;28;20205;-52
2021/11/17 09:09:20;;;;;;;4.00;3.07;;;8.30;99.90;;;;;;5054461;28;20206;-50
2021/11/17 09:11:46;;;;;;;3.28;2.30;;;8.50;99.90;;;;;;5053331;28;20208;-52
2021/11/17 09:14:13;;;;;;;1.83;1.70;;;8.20;99.90;;;;;;5067825;28;20672;-53
2021/11/17 09:16:40;;;;;;;2.30;2.10;;;8.50;99.90;;;;;;5064650;28;20693;-53
2021/11/17 09:19:07;;;;;;;4.97;3.53;;;8.20;99.90;;;;;;5057122;28;20176;-52
2021/11/17 09:21:36;;;;;;;2.25;1.80;;;8.20;99.90;;;;;;5051269;28;20663;-51
2021/11/17 09:24:02;;;;;;;2.47;2.28;;;8.10;99.90;;;;;;5056183;28;20205;-52
2021/11/17 09:26:28;;;;;;;2.60;1.90;;;8.00;99.90;;;;;;5049762;28;20192;-52
2021/11/17 09:28:58;;;;;;;2.63;1.80;;;8.00;99.90;;;;;;5063989;28;20200;-51
2021/11/17 09:31:26;;;;;;;3.45;2.40;;;7.90;99.90;;;;;;5050413;28;20293;-52
2021/11/17 09:33:51;;;;;;;3.53;2.75;;;7.80;99.90;;;;;;5055623;28;20196;-52
2021/11/17 09:36:21;;;;;;;2.90;1.83;;;7.90;99.90;;;;;;5050749;28;20645;-51
2021/11/17 09:38:50;;;;;;;2.85;2.30;;;7.10;99.90;;;;;;5047072;28;20444;-51
2021/11/17 09:41:22;;;;;;;3.90;3.20;;;7.60;99.90;;;;;;5040413;28;20191;-52
2021/11/17 09:43:53;;;;;;;1.80;1.70;;;7.10;99.90;;;;;;5060426;28;20206;-52
2021/11/17 09:46:21;;;;;;;3.58;1.85;;;7.80;99.90;;;;;;5051048;28;20235;-52
2021/11/17 09:48:51;;;;;;;1.95;1.63;;;7.70;99.90;;;;;;5044822;28;20228;-53
2021/11/17 09:51:21;;;;;;;3.08;2.10;;;7.50;99.90;;;;;;5049601;28;20271;-52
2021/11/17 09:54:11;;;;;;;1.95;1.50;;;7.60;99.90;;;;;;5064000;28;20242;-52
2021/11/17 09:56:41;;;;;;;3.67;2.75;;;7.70;99.90;;;;;;5062626;28;20208;-51
2021/11/17 09:59:15;;;;;;;2.08;1.80;;;7.70;99.90;;;;;;5059682;28;20208;-51
2021/11/17 10:01:55;;;;;;;2.60;2.10;;;7.90;99.90;;;;;;5029603;28;20419;-51
2021/11/17 10:04:28;;;;;;;4.18;2.03;;;7.90;99.90;;;;;;5050548;28;20185;-51
2021/11/17 10:10:05;;;;;;;2.20;2.00;;;7.60;99.90;;;;;;5066950;28;20219;-50
2021/11/17 10:12:59;;;;;;;1.73;1.63;;;8.00;99.90;;;;;;5066867;28;20725;-51
2021/11/17 10:15:30;;;;;;;1.73;1.58;;;8.00;99.90;;;;;;5048226;28;20181;-52
2021/11/17 10:18:07;;;;;;;2.80;2.08;;;8.00;99.90;;;;;;5057072;28;20235;-50
2021/11/17 10:20:34;;;;;;;2.25;1.75;;;8.20;99.90;;;;;;5060508;28;20197;-52
2021/11/17 10:23:05;;;;;;;2.08;1.80;;;8.30;99.90;;;;;;5035459;28;20182;-55
2021/11/17 10:26:00;;;;;;;3.10;1.90;;;8.10;99.90;;;;;;5054547;28;20197;-54
2021/11/17 10:28:33;;;;;;;2.13;1.70;;;8.50;99.90;;;;;;5042620;28;20202;-52
2021/11/17 10:31:04;;;;;;;2.42;2.20;;;8.10;99.90;;;;;;5043315;28;20662;-52
2021/11/17 10:34:17;;;;;;;1.95;1.77;;;8.20;99.90;;;;;;5049744;28;20192;-50
2021/11/17 10:37:23;;;;;;;2.30;2.00;;;8.10;99.90;;;;;;5031265;28;20213;-50
2021/11/17 10:39:50;;;;;;;6.00;4.10;;;8.30;99.90;;;;;;4986691;28;20384;-52
2021/11/17 10:42:19;;;;;;;2.90;2.10;;;8.20;99.90;;;;;;5000883;28;20214;-51
2021/11/17 10:44:47;;;;;;;1.83;1.73;;;8.20;99.90;;;;;;5012155;28;20327;-52
2021/11/17 10:47:18;;;;;;;4.88;3.67;;;8.30;99.90;;;;;;5068946;28;20181;-52
2021/11/17 10:49:49;;;;;;;2.92;2.20;;;8.30;99.90;;;;;;5062256;28;20214;-52
2021/11/17 10:52:27;;;;;;;2.13;1.90;;;8.30;99.90;;;;;;5055662;28;20649;-52
2021/11/17 10:54:55;;;;;;;2.53;1.92;;;8.40;99.90;;;;;;5044179;28;20718;-51
2021/11/17 10:57:27;;;;;;;2.40;2.17;;;8.60;99.90;;;;;;5052739;28;20206;-51
2021/11/17 10:59:55;;;;;;;2.10;1.90;;;8.70;99.90;;;;;;5053299;28;20205;-52
2021/11/17 11:02:22;;;;;;;4.28;2.67;;;8.50;99.90;;;;;;5061577;28;20175;-53
2021/11/17 11:04:53;;;;;;;1.75;1.65;;;8.70;99.90;;;;;;5056515;28;20226;-50
2021/11/17 11:07:27;;;;;;;1.50;1.40;;;8.80;99.90;;;;;;5061075;28;20201;-52
2021/11/17 11:10:01;;;;;;;3.17;1.85;;;8.80;99.90;;;;;;5050367;28;20213;-53
2021/11/17 11:12:30;;;;;;;2.85;1.25;;;8.80;99.90;;;;;;5067754;28;20193;-54
2021/11/17 11:15:04;;;;;;;3.88;1.73;;;8.90;99.90;;;;;;5048917;28;20708;-53
2021/11/17 11:17:31;;;;;;;2.38;2.10;;;8.60;99.90;;;;;;5054136;28;20217;-53
2021/11/17 11:20:15;;;;;;;1.65;1.35;;;9.00;99.90;;;;;;5048113;28;20679;-54
2021/11/17 11:23:06;;;;;;;1.40;1.30;;;9.10;99.90;;;;;;5045795;28;20265;-53
2021/11/17 11:25:53;;;;;;;1.30;1.20;;;9.10;99.90;;;;;;5054106;28;20229;-53
2021/11/17 11:28:23;;;;;;;1.92;1.17;;;9.30;99.90;;;;;;5045251;28;20190;-53
2021/11/17 11:31:00;;;;;;;7.22;1.35;;;9.10;99.90;;;;;;5039827;28;20245;-53
2021/11/17 11:33:35;;;;;;;2.17;1.85;;;9.10;99.90;;;;;;5054072;28;20185;-53
2021/11/17 11:36:23;;;;;;;1.95;1.52;;;9.40;99.90;;;;;;5060742;28;20605;-53
2021/11/17 11:39:11;;;;;;;2.30;1.27;;;9.10;99.90;;;;;;5035756;28;20659;-53
2021/11/17 11:41:42;;;;;;;1.30;1.20;;;9.30;99.90;;;;;;5051427;28;20208;-52
2021/11/17 11:44:20;;;;;;;1.90;1.48;;;9.30;99.90;;;;;;5051113;28;20182;-52
2021/11/17 11:46:57;;;;;;;1.40;1.30;;;8.90;99.90;;;;;;5052296;28;20191;-53
2021/11/17 11:49:37;;;;;;;1.45;1.35;;;8.50;99.90;;;;;;5051909;28;20182;-52
2021/11/17 11:52:22;;;;;;;1.70;1.60;;;9.10;99.90;;;;;;5062806;28;20185;-53
2021/11/17 11:54:56;;;;;;;2.65;1.10;;;8.90;99.90;;;;;;5060035;28;20695;-52
2021/11/17 11:57:32;;;;;;;2.55;1.45;;;9.10;99.90;;;;;;5058616;28;20213;-52
2021/11/17 11:59:57;;;;;;;1.60;1.50;;;8.80;99.90;;;;;;5060103;28;20672;-50
2021/11/17 12:02:25;;;;;;;1.37;1.27;;;9.10;99.90;;;;;;5063920;28;20193;-52
2021/11/17 12:04:57;;;;;;;1.67;1.38;;;8.90;99.90;;;;;;5060115;28;20260;-53
2021/11/17 12:07:31;;;;;;;1.55;1.45;;;9.00;99.90;;;;;;5053712;28;20501;-51
2021/11/17 12:09:59;;;;;;;1.70;1.60;;;8.90;99.90;;;;;;5055942;28;20219;-51
2021/11/17 12:12:29;;;;;;;1.67;1.50;;;9.00;99.90;;;;;;5050949;28;20270;-50
2021/11/17 12:15:11;;;;;;;1.45;1.35;;;9.00;99.90;;;;;;5042377;28;20196;-53
2021/11/17 12:17:37;;;;;;;1.17;1.08;;;8.80;99.90;;;;;;5062952;28;20607;-52
2021/11/17 12:20:23;;;;;;;1.30;1.20;;;8.70;99.90;;;;;;5031856;28;20206;-52
2021/11/17 12:22:52;;;;;;;2.60;1.48;;;8.80;99.90;;;;;;5056251;28;20433;-53
2021/11/17 12:25:36;;;;;;;2.58;1.40;;;8.80;99.90;;;;;;5063559;28;21079;-52
2021/11/17 12:28:14;;;;;;;5.25;1.95;;;9.00;99.90;;;;;;5048926;28;20209;-53
2021/11/17 12:30:44;;;;;;;2.28;2.08;;;8.70;99.90;;;;;;5051277;28;20207;-50
2021/11/17 12:33:22;;;;;;;3.63;2.45;;;8.70;99.90;;;;;;5058442;28;20178;-50
2021/11/17 12:35:59;;;;;;;4.35;2.80;;;8.70;99.90;;;;;;5058139;28;20192;-51
2021/11/17 12:38:27;;;;;;;2.00;1.60;;;8.80;99.90;;;;;;5037396;28;20232;-53
2021/11/17 12:40:58;;;;;;;3.67;2.60;;;8.90;99.90;;;;;;5044088;28;20210;-51
2021/11/17 12:43:35;;;;;;;2.15;1.95;;;8.80;99.90;;;;;;5048347;28;20236;-52
2021/11/17 12:46:33;;;;;;;3.20;1.80;;;8.60;99.90;;;;;;5054059;28;20189;-51
2021/11/17 12:49:16;;;;;;;1.65;1.40;;;8.70;99.90;;;;;;5039276;28;20201;-52
2021/11/17 12:52:00;;;;;;;1.45;1.23;;;8.50;99.90;;;;;;5043721;28;20209;-51
2021/11/17 12:54:31;;;;;;;1.35;1.25;;;8.50;99.90;;;;;;5048541;28;20184;-51
2021/11/17 12:57:09;;;;;;;1.40;1.05;;;8.50;99.90;;;;;;5065274;28;20209;-52
2021/11/17 12:59:44;;;;;;;1.40;1.30;;;8.50;99.90;;;;;;5025705;28;20312;-53
2021/11/17 13:02:22;;;;;;;1.50;1.40;;;8.50;99.90;;;;;;5052024;28;20176;-52
2021/11/17 13:04:52;;;;;;;1.90;1.40;;;8.20;99.90;;;;;;5052780;28;20186;-51
2021/11/17 13:07:58;;;;;;;1.15;1.05;;;8.40;99.90;;;;;;5048438;28;20339;-52
2021/11/17 13:10:40;;;;;;;1.70;1.60;;;8.50;99.90;;;;;;4983527;28;20356;-52
2021/11/17 13:13:25;;;;;;;2.53;1.65;;;8.70;99.90;;;;;;5045183;28;20201;-52
2021/11/17 13:15:51;;;;;;;2.20;1.75;;;8.30;99.90;;;;;;5055316;28;20199;-52
2021/11/17 13:18:45;;;;;;;2.20;1.90;;;8.30;99.90;;;;;;5057533;28;20190;-53
2021/11/17 13:21:32;;;;;;;3.90;1.70;;;8.20;99.90;;;;;;5033249;28;20225;-51
2021/11/17 13:24:11;;;;;;;2.05;1.80;;;8.60;99.90;;;;;;5053304;28;20181;-54
2021/11/17 13:26:45;;;;;;;1.50;1.30;;;8.50;99.90;;;;;;5064530;28;20539;-52
2021/11/17 13:29:30;;;;;;;3.55;1.35;;;8.50;99.90;;;;;;5062434;28;20197;-53
2021/11/17 13:32:15;;;;;;;1.63;1.52;;;8.40;99.90;;;;;;5052302;28;20581;-53
2021/11/17 13:34:50;;;;;;;2.45;2.25;;;8.40;99.90;;;;;;5047842;28;20685;-52
2021/11/17 13:37:37;;;;;;;1.77;1.65;;;8.40;99.90;;;;;;5044998;28;20293;-55
2021/11/17 13:40:18;;;;;;;1.95;1.40;;;8.10;99.90;;;;;;5042941;28;20206;-50
2021/11/17 13:42:46;;;;;;;1.83;1.42;;;8.20;99.90;;;;;;5045346;28;20169;-52
2021/11/17 13:45:18;;;;;;;1.40;1.30;;;7.90;99.90;;;;;;5048244;28;20436;-53
2021/11/17 13:47:44;;;;;;;1.95;1.58;;;8.40;99.90;;;;;;5038437;28;20271;-53
2021/11/17 13:50:11;;;;;;;1.60;1.48;;;8.40;99.90;;;;;;5046943;28;20284;-51
2021/11/17 13:52:41;;;;;;;1.55;1.45;;;8.40;99.90;;;;;;5051349;28;20193;-52
2021/11/17 13:55:20;;;;;;;1.42;1.30;;;8.30;99.90;;;;;;5051614;28;20245;-52
2021/11/17 13:57:47;;;;;;;1.70;1.60;;;8.20;99.90;;;;;;5059968;28;20311;-52
2021/11/17 14:00:15;;;;;;;3.45;1.73;;;8.30;99.90;;;;;;5062074;28;20205;-53
2021/11/17 14:02:42;;;;;;;1.50;1.40;;;8.30;99.90;;;;;;5062901;28;20181;-53
2021/11/17 14:05:08;;;;;;;1.90;1.10;;;8.50;99.90;;;;;;5038101;28;20189;-53
2021/11/17 14:07:34;;;;;;;2.03;1.70;;;8.30;99.90;;;;;;5064438;28;20272;-52
2021/11/17 14:10:01;;;;;;;2.53;1.57;;;8.40;99.90;;;;;;5058991;28;20296;-53
2021/11/17 14:12:27;;;;;;;1.70;1.35;;;8.20;99.90;;;;;;5067196;28;20193;-53
2021/11/17 14:14:53;;;;;;;6.83;4.90;;;8.40;99.90;;;;;;5048908;28;20179;-53
2021/11/17 14:17:19;;;;;;;1.58;1.45;;;8.40;99.90;;;;;;5053918;28;20232;-54
2021/11/17 14:19:44;;;;;;;3.17;1.93;;;8.50;99.90;;;;;;5056392;28;20693;-53
2021/11/17 14:22:11;;;;;;;1.83;1.67;;;8.50;99.90;;;;;;5050057;28;20250;-52
2021/11/17 14:24:36;;;;;;;4.47;2.33;;;8.70;99.90;;;;;;5046192;28;20182;-51
2021/11/17 14:27:06;;;;;;;2.30;2.10;;;8.60;99.90;;;;;;5052305;28;20504;-54
2021/11/17 14:29:46;;;;;;;2.50;2.30;;;8.50;99.90;;;;;;5048450;28;20189;-52
2021/11/17 14:32:30;;;;;;;3.38;2.50;;;8.60;99.90;;;;;;5046566;28;20249;-52
2021/11/17 14:34:57;;;;;;;2.58;2.35;;;8.40;99.90;;;;;;5047813;28;20323;-53
2021/11/17 14:37:22;;;;;;;2.40;1.90;;;8.50;99.90;;;;;;5048020;28;20224;-53
2021/11/17 14:39:48;;;;;;;2.70;2.50;;;8.50;99.90;;;;;;5038489;28;20205;-52
2021/11/17 14:42:14;;;;;;;2.40;2.20;;;8.40;99.90;;;;;;5065195;28;20903;-52
2021/11/17 14:44:41;;;;;;;2.85;2.65;;;8.60;99.90;;;;;;5050538;28;20192;-53
2021/11/17 14:47:07;;;;;;;3.25;2.50;;;8.70;99.90;;;;;;5055869;28;20196;-54
2021/11/17 14:49:34;;;;;;;2.35;2.05;;;8.40;99.90;;;;;;5051752;28;20196;-53
2021/11/17 14:52:02;;;;;;;2.13;1.85;;;8.20;99.90;;;;;;5050512;28;20208;-53
2021/11/17 14:54:28;;;;;;;3.20;2.40;;;8.20;99.90;;;;;;5048971;28;20276;-53
2021/11/17 14:56:53;;;;;;;3.63;2.33;;;8.50;99.90;;;;;;5059957;28;20284;-53
2021/11/17 14:59:19;;;;;;;2.40;2.20;;;8.30;99.90;;;;;;5051795;28;20891;-54
2021/11/17 15:01:45;;;;;;;3.03;2.57;;;8.40;99.90;;;;;;5056877;28;20656;-53
2021/11/17 15:04:11;;;;;;;3.25;2.33;;;8.10;99.90;;;;;;5052774;28;20186;-55
2021/11/17 15:06:39;;;;;;;5.40;3.93;;;8.50;99.90;;;;;;5053443;28;20681;-53
2021/11/17 15:09:07;;;;;;;2.63;2.40;;;8.20;99.90;;;;;;5046956;28;20316;-53
2021/11/17 15:11:53;;;;;;;2.60;2.00;;;8.30;99.90;;;;;;5071129;28;20212;-53
2021/11/17 15:14:20;;;;;;;4.10;2.53;;;8.20;99.90;;;;;;5025215;28;20234;-53
2021/11/17 15:16:47;;;;;;;3.80;2.60;;;8.30;99.90;;;;;;5049432;28;20701;-52
2021/11/17 15:19:13;;;;;;;3.15;2.70;;;8.40;99.90;;;;;;5057589;28;20189;-53
2021/11/17 15:21:38;;;;;;;2.95;2.75;;;8.40;99.90;;;;;;5062315;28;20255;-53
2021/11/17 15:24:05;;;;;;;4.00;2.57;;;8.10;99.90;;;;;;5045567;28;20186;-51
2021/11/17 15:26:31;;;;;;;3.47;2.40;;;8.20;99.90;;;;;;5048743;28;20181;-52
2021/11/17 15:28:59;;;;;;;5.10;3.97;;;8.40;99.90;;;;;;5035121;28;20206;-52
2021/11/17 15:31:28;;;;;;;3.17;2.42;;;8.10;99.90;;;;;;5047429;28;20200;-51
2021/11/17 15:33:54;;;;;;;4.47;2.05;;;8.40;99.90;;;;;;5041877;28;20194;-52
2021/11/17 15:36:21;;;;;;;2.50;2.30;;;8.30;99.90;;;;;;5040714;28;20263;-53
2021/11/17 15:38:48;;;;;;;3.00;2.20;;;8.60;99.90;;;;;;5046257;28;21006;-55
2021/11/17 15:41:17;;;;;;;3.83;2.28;;;8.30;99.90;;;;;;5057205;28;20212;-54
2021/11/17 15:43:46;;;;;;;2.70;2.28;;;8.10;99.90;;;;;;5045942;28;20186;-52
2021/11/17 15:46:11;;;;;;;9.45;2.75;;;8.70;99.90;;;;;;5045542;28;20194;-52
2021/11/17 15:48:37;;;;;;;5.27;3.17;;;8.40;99.90;;;;;;5041897;28;20178;-52
2021/11/17 15:51:06;;;;;;;3.63;2.63;;;8.40;99.90;;;;;;5044340;28;20277;-51
2021/11/17 15:53:32;;;;;;;3.55;2.90;;;8.30;99.90;;;;;;5034964;28;20411;-52
2021/11/17 15:55:57;;;;;;;2.20;1.98;;;7.70;99.90;;;;;;5047960;28;20207;-53
2021/11/17 15:58:23;;;;;;;3.33;2.93;;;8.30;99.90;;;;;;5045587;28;20204;-54
2021/11/17 16:00:49;;;;;;;3.07;2.33;;;8.30;99.90;;;;;;5049963;28;20652;-51
2021/11/17 16:03:16;;;;;;;4.07;3.37;;;8.10;99.90;;;;;;5057391;28;20405;-53